If you wish to contribute or participate in the discussions about articles you are invited to join SKYbrary as a registered user

 Actions

Freetown/Lungi Airport

From SKYbrary Wiki

GFLL
Airport
ICAO: GFLL – IATA: FNA
Summary
Name Freetown/Lungi Airport
Region Africa
Territory Sierra Leone SL.gif
Location Lungi, Sierra Leone
Serving Freetown
Elevation 25.603 m
84 ft25.603 m
Coordinates 8° 36' 59.00" N, 13° 11' 44.02" W
Runways
Designator Length Width Surface ROPS
12/30 3200 m10,498.688 ft
46 m150.919 ft
ASP yes/yes


METAR
Observation GFLL 191300Z 24007KT 9999 BKN012 FEW027CB 30/24 Q1013 RMK CB-NE
Station Lungi
Date/Time 19 September 2020 13:00:00
Wind direction 240°
Wind speed 07 kts
Lowest cloud amount broken clouds
Temperature 30°C
Dew point 24°C
Humidity 70%
QNH 1013 hPa
Weather condition n/a

International airport serving the city of Freetown, Sierra Leone.==Climatology== Tropical Monsoon climate (Köppen climate classification Am)

Maps

Terrain

Loading map...

Airport Layout

Loading map...


Accidents & Serious Incidents at or in vicinity of GFLL

None on SKYbrary